createdAt,value
2022-11-16T00:00:15.029Z,11.78
2022-11-16T00:01:11.992Z,11.82
2022-11-16T00:02:11.417Z,11.78
2022-11-16T00:03:11.567Z,11.69
2022-11-16T00:04:11.258Z,11.79
2022-11-16T00:05:11.264Z,11.74
2022-11-16T00:06:12.258Z,11.70
2022-11-16T00:07:12.148Z,11.74
2022-11-16T00:08:11.542Z,11.75
2022-11-16T00:09:11.214Z,11.75
2022-11-16T00:10:14.004Z,11.74
2022-11-16T00:11:11.182Z,11.69
2022-11-16T00:12:11.174Z,11.69
2022-11-16T00:13:11.153Z,11.67
2022-11-16T00:14:11.191Z,11.75
2022-11-16T00:15:14.002Z,11.75
2022-11-16T00:16:11.146Z,11.75
2022-11-16T00:17:12.015Z,11.72
2022-11-16T00:18:11.097Z,11.57
2022-11-16T00:19:11.105Z,11.64
2022-11-16T00:20:11.106Z,11.67
2022-11-16T00:21:11.548Z,11.64
2022-11-16T00:22:12.035Z,11.60
2022-11-16T00:23:11.056Z,11.59
2022-11-16T00:24:11.042Z,11.59
2022-11-16T00:25:11.018Z,11.60
2022-11-16T00:26:14.011Z,11.51
2022-11-16T00:27:11.026Z,11.53
2022-11-16T00:28:11.001Z,11.48
2022-11-16T00:29:11.505Z,11.48
2022-11-16T00:30:10.973Z,11.53
2022-11-16T00:31:10.964Z,11.57
2022-11-16T00:32:11.054Z,11.51
2022-11-16T00:33:10.932Z,11.54
2022-11-16T00:34:13.513Z,11.53
2022-11-16T00:35:10.915Z,11.54
2022-11-16T00:36:10.902Z,11.57
2022-11-16T00:37:10.909Z,11.54
2022-11-16T00:38:10.912Z,11.53
2022-11-16T00:39:10.866Z,11.56
2022-11-16T00:40:10.887Z,11.53
2022-11-16T00:41:10.855Z,11.59
2022-11-16T00:42:10.854Z,11.53
2022-11-16T00:43:10.826Z,11.48
2022-11-16T00:44:11.875Z,11.49
2022-11-16T00:45:10.825Z,11.45
2022-11-16T00:46:10.794Z,11.53
2022-11-16T00:47:10.780Z,11.46
2022-11-16T00:48:10.803Z,11.53
2022-11-16T00:49:10.788Z,11.45
2022-11-16T00:50:10.759Z,11.44
2022-11-16T00:51:10.752Z,11.42
2022-11-16T00:52:10.731Z,11.42
2022-11-16T00:53:10.725Z,11.42
2022-11-16T00:54:10.723Z,11.42
2022-11-16T00:55:10.699Z,11.41
2022-11-16T00:56:11.507Z,11.38
2022-11-16T00:57:10.700Z,11.48
2022-11-16T00:58:10.716Z,11.42
2022-11-16T00:59:10.662Z,11.44
2022-11-16T01:00:10.688Z,11.39
2022-11-16T01:01:10.683Z,11.38
2022-11-16T01:02:10.628Z,11.36
2022-11-16T01:03:10.611Z,11.38
2022-11-16T01:04:10.609Z,11.39
2022-11-16T01:05:10.621Z,11.42
2022-11-16T01:06:10.596Z,11.36
2022-11-16T01:07:10.635Z,11.41
2022-11-16T01:08:10.559Z,11.39
2022-11-16T01:09:10.553Z,11.36
2022-11-16T01:10:10.542Z,11.36
2022-11-16T01:11:10.540Z,11.28
2022-11-16T01:12:10.518Z,11.28
2022-11-16T01:13:10.505Z,11.30
2022-11-16T01:14:11.009Z,11.30
2022-11-16T01:15:10.514Z,11.28
2022-11-16T01:16:10.477Z,11.23
2022-11-16T01:17:10.483Z,11.27
2022-11-16T01:18:10.470Z,11.27
2022-11-16T01:19:10.443Z,11.27
2022-11-16T01:20:10.434Z,11.26
2022-11-16T01:21:10.411Z,11.26
2022-11-16T01:22:10.447Z,11.28
2022-11-16T01:23:10.394Z,11.28
2022-11-16T01:24:11.021Z,11.24
2022-11-16T01:25:10.372Z,11.26
2022-11-16T01:26:10.368Z,11.27
2022-11-16T01:27:10.348Z,11.27
2022-11-16T01:28:11.613Z,11.26
2022-11-16T01:29:10.540Z,11.24
2022-11-16T01:30:10.333Z,11.28
2022-11-16T01:31:10.304Z,11.26
2022-11-16T01:32:10.325Z,11.24
2022-11-16T01:33:13.014Z,11.27
2022-11-16T01:34:10.279Z,11.24
2022-11-16T01:35:10.262Z,11.28
2022-11-16T01:36:13.034Z,11.28
2022-11-16T01:37:10.237Z,11.31
2022-11-16T01:38:10.254Z,11.24
2022-11-16T01:39:11.510Z,11.26
2022-11-16T01:40:10.202Z,11.27
2022-11-16T01:41:11.028Z,11.21
2022-11-16T01:42:10.178Z,11.21
2022-11-16T01:43:10.203Z,11.26
2022-11-16T01:44:10.166Z,11.27
2022-11-16T01:45:10.171Z,11.21
2022-11-16T01:46:10.137Z,11.23
2022-11-16T01:47:10.144Z,11.19
2022-11-16T01:48:10.136Z,11.20
2022-11-16T01:49:10.142Z,11.24
2022-11-16T01:50:10.093Z,11.16
2022-11-16T01:51:10.091Z,11.20
2022-11-16T01:52:10.139Z,11.13
2022-11-16T01:53:11.011Z,11.24
2022-11-16T01:54:10.057Z,11.23
2022-11-16T01:55:10.069Z,11.20
2022-11-16T01:56:10.027Z,11.21
2022-11-16T01:57:11.075Z,11.19
2022-11-16T01:58:10.010Z,11.20
2022-11-16T01:59:10.002Z,11.19
2022-11-16T02:00:09.994Z,11.21
2022-11-16T02:01:10.063Z,11.11
2022-11-16T02:02:09.990Z,11.19
2022-11-16T02:03:09.958Z,11.17
2022-11-16T02:04:09.956Z,11.12
2022-11-16T02:05:09.931Z,11.08
2022-11-16T02:06:09.963Z,11.12
2022-11-16T02:07:09.972Z,11.09
2022-11-16T02:08:09.919Z,11.12
2022-11-16T02:09:12.514Z,11.05
2022-11-16T02:10:12.503Z,11.17
2022-11-16T02:11:09.866Z,11.08
2022-11-16T02:12:09.890Z,11.08
2022-11-16T02:13:09.875Z,11.08
2022-11-16T02:14:09.839Z,11.12
2022-11-16T02:15:09.824Z,11.09
2022-11-16T02:16:09.826Z,11.09
2022-11-16T02:17:09.804Z,11.03
2022-11-16T02:18:09.812Z,11.05
2022-11-16T02:19:09.795Z,11.08
2022-11-16T02:20:09.773Z,11.09
2022-11-16T02:21:09.759Z,11.08
2022-11-16T02:22:09.767Z,11.05
2022-11-16T02:23:09.741Z,11.09
2022-11-16T02:24:09.746Z,11.03
2022-11-16T02:25:09.719Z,11.05
2022-11-16T02:26:09.699Z,10.95
2022-11-16T02:27:09.722Z,10.94
2022-11-16T02:28:09.678Z,11.02
2022-11-16T02:29:09.696Z,10.95
2022-11-16T02:30:09.655Z,10.91
2022-11-16T02:31:09.656Z,11.03
2022-11-16T02:32:09.630Z,10.93
2022-11-16T02:33:09.655Z,10.88
2022-11-16T02:34:09.613Z,10.99
2022-11-16T02:35:09.606Z,10.90
2022-11-16T02:36:09.592Z,10.94
2022-11-16T02:37:10.632Z,10.90
2022-11-16T02:38:16.507Z,10.88
2022-11-16T02:39:10.050Z,10.88
2022-11-16T02:40:12.527Z,10.95
2022-11-16T02:41:12.523Z,10.93
2022-11-16T02:42:09.535Z,10.94
2022-11-16T02:43:09.521Z,10.91
2022-11-16T02:44:09.507Z,10.94
2022-11-16T02:45:09.519Z,11.02
2022-11-16T02:46:09.475Z,11.05
2022-11-16T02:47:09.474Z,11.05
2022-11-16T02:48:09.477Z,11.03
2022-11-16T02:49:09.455Z,10.90
2022-11-16T02:50:09.547Z,10.94
2022-11-16T02:51:09.429Z,11.03
2022-11-16T02:52:09.420Z,11.03
2022-11-16T02:53:09.405Z,11.01
2022-11-16T02:54:09.404Z,10.93
2022-11-16T02:55:09.407Z,10.91
2022-11-16T02:56:09.418Z,10.88
2022-11-16T02:57:09.361Z,10.99
2022-11-16T02:58:10.021Z,10.99
2022-11-16T02:59:09.336Z,10.88
2022-11-16T03:00:09.333Z,10.95
2022-11-16T03:01:09.419Z,10.95
2022-11-16T03:02:09.332Z,10.88
2022-11-16T03:03:12.019Z,11.01
2022-11-16T03:04:09.286Z,11.01
2022-11-16T03:05:09.275Z,11.02
2022-11-16T03:06:09.281Z,10.98
2022-11-16T03:07:09.320Z,11.01
2022-11-16T03:08:10.012Z,10.90
2022-11-16T03:09:09.258Z,11.01
2022-11-16T03:10:09.221Z,11.06
2022-11-16T03:11:09.211Z,11.01
2022-11-16T03:12:09.217Z,10.98
2022-11-16T03:13:09.214Z,10.99
2022-11-16T03:14:09.197Z,10.88
2022-11-16T03:15:09.171Z,10.95
2022-11-16T03:16:09.146Z,10.98
2022-11-16T03:17:09.149Z,10.88
2022-11-16T03:18:10.014Z,11.05
2022-11-16T03:19:09.145Z,10.99
2022-11-16T03:20:09.119Z,10.99
2022-11-16T03:21:09.148Z,11.01
2022-11-16T03:22:09.095Z,11.06
2022-11-16T03:23:09.074Z,11.01
2022-11-16T03:24:10.021Z,10.91
2022-11-16T03:25:11.039Z,10.94
2022-11-16T03:26:09.043Z,10.93
2022-11-16T03:27:09.035Z,10.93
2022-11-16T03:28:09.051Z,10.95
2022-11-16T03:29:09.046Z,10.88
2022-11-16T03:30:08.998Z,10.90
2022-11-16T03:31:09.513Z,10.93
2022-11-16T03:32:08.999Z,11.02
2022-11-16T03:33:08.963Z,10.95
2022-11-16T03:34:08.988Z,10.99
2022-11-16T03:35:08.942Z,10.99
2022-11-16T03:36:08.940Z,10.99
2022-11-16T03:37:08.943Z,11.01
2022-11-16T03:38:08.926Z,10.95
2022-11-16T03:39:08.900Z,10.90
2022-11-16T03:40:08.892Z,10.99
2022-11-16T03:41:08.897Z,10.95
2022-11-16T03:42:08.871Z,11.03
2022-11-16T03:43:08.863Z,10.94
2022-11-16T03:44:08.868Z,11.01
2022-11-16T03:45:08.835Z,11.01
2022-11-16T03:46:08.852Z,10.95
2022-11-16T03:47:08.826Z,10.86
2022-11-16T03:48:09.528Z,10.91
2022-11-16T03:49:08.795Z,10.94
2022-11-16T03:50:11.521Z,10.95
2022-11-16T03:51:08.773Z,10.91
2022-11-16T03:52:08.783Z,11.01
2022-11-16T03:53:08.752Z,10.83
2022-11-16T03:54:08.772Z,10.95
2022-11-16T03:55:08.763Z,10.93
2022-11-16T03:56:08.713Z,10.99
2022-11-16T03:57:08.726Z,10.98
2022-11-16T03:58:08.693Z,10.90
2022-11-16T03:59:09.728Z,10.90
2022-11-16T04:00:09.537Z,10.86
2022-11-16T04:01:08.735Z,10.93
2022-11-16T04:02:08.654Z,10.98
2022-11-16T04:03:10.743Z,10.99
2022-11-16T04:04:08.649Z,10.99
2022-11-16T04:05:09.521Z,11.01
2022-11-16T04:06:11.511Z,11.01
2022-11-16T04:07:08.643Z,10.98
2022-11-16T04:08:09.514Z,10.91
2022-11-16T04:09:08.596Z,10.99
2022-11-16T04:10:10.552Z,10.98
2022-11-16T04:11:08.555Z,10.94
2022-11-16T04:12:08.545Z,10.98
2022-11-16T04:13:08.534Z,10.90
2022-11-16T04:14:09.401Z,10.98
2022-11-16T04:15:08.527Z,10.98
2022-11-16T04:16:08.514Z,10.93
2022-11-16T04:17:08.495Z,10.91
2022-11-16T04:18:08.477Z,10.94
2022-11-16T04:19:08.560Z,10.95
2022-11-16T04:20:08.456Z,10.93
2022-11-16T04:21:08.444Z,11.02
2022-11-16T04:22:08.437Z,10.99
2022-11-16T04:23:08.413Z,11.01
2022-11-16T04:24:08.413Z,10.95
2022-11-16T04:25:08.418Z,11.06
2022-11-16T04:26:08.419Z,11.03
2022-11-16T04:27:08.373Z,11.08
2022-11-16T04:28:08.367Z,11.05
2022-11-16T04:29:08.369Z,11.08
2022-11-16T04:30:08.353Z,11.11
2022-11-16T04:31:08.330Z,11.02
2022-11-16T04:32:08.383Z,11.05
2022-11-16T04:33:08.310Z,11.08
2022-11-16T04:34:08.307Z,11.08
2022-11-16T04:35:08.299Z,11.09
2022-11-16T04:36:08.308Z,11.09
2022-11-16T04:37:08.291Z,11.08
2022-11-16T04:38:08.264Z,11.11
2022-11-16T04:39:08.245Z,11.08
2022-11-16T04:40:08.237Z,11.12
2022-11-16T04:41:08.225Z,11.20
2022-11-16T04:42:08.228Z,11.06
2022-11-16T04:43:09.012Z,11.09
2022-11-16T04:44:08.202Z,11.06
2022-11-16T04:45:08.167Z,11.16
2022-11-16T04:46:08.166Z,11.08
2022-11-16T04:47:08.209Z,11.11
2022-11-16T04:48:08.176Z,11.16
2022-11-16T04:49:08.131Z,11.16
2022-11-16T04:50:08.127Z,11.21
2022-11-16T04:51:08.108Z,11.20
2022-11-16T04:52:08.108Z,11.19
2022-11-16T04:53:08.109Z,11.16
2022-11-16T04:54:08.084Z,11.13
2022-11-16T04:55:08.069Z,11.13
2022-11-16T04:56:08.063Z,11.19
2022-11-16T04:57:08.045Z,11.16
2022-11-16T04:58:08.087Z,11.11
2022-11-16T04:59:08.050Z,11.26
2022-11-16T05:00:08.035Z,11.27
2022-11-16T05:01:08.048Z,11.27
2022-11-16T05:02:07.995Z,11.27
2022-11-16T05:03:07.979Z,11.09
2022-11-16T05:04:08.015Z,11.23
2022-11-16T05:05:07.980Z,11.23
2022-11-16T05:06:07.945Z,11.24
2022-11-16T05:07:07.956Z,11.23
2022-11-16T05:08:09.242Z,11.26
2022-11-16T05:09:07.944Z,11.23
2022-11-16T05:10:07.917Z,11.17
2022-11-16T05:11:07.902Z,11.19
2022-11-16T05:12:07.884Z,11.24
2022-11-16T05:13:07.880Z,11.26
2022-11-16T05:14:07.864Z,11.17
2022-11-16T05:15:08.057Z,11.19
2022-11-16T05:16:07.837Z,11.23
2022-11-16T05:17:07.838Z,11.26
2022-11-16T05:18:07.817Z,11.20
2022-11-16T05:19:07.808Z,11.23
2022-11-16T05:20:07.840Z,11.20
2022-11-16T05:21:07.795Z,11.30
2022-11-16T05:22:07.766Z,11.26
2022-11-16T05:23:08.772Z,11.24
2022-11-16T05:24:07.770Z,11.19
2022-11-16T05:25:07.768Z,11.19
2022-11-16T05:26:07.728Z,11.19
2022-11-16T05:27:07.719Z,11.12
2022-11-16T05:28:07.722Z,11.23
2022-11-16T05:29:07.702Z,11.30
2022-11-16T05:30:07.697Z,11.19
2022-11-16T05:31:07.711Z,11.21
2022-11-16T05:32:07.673Z,11.28
2022-11-16T05:33:07.661Z,11.24
2022-11-16T05:34:07.645Z,11.24
2022-11-16T05:35:07.634Z,11.28
2022-11-16T05:36:07.663Z,11.28
2022-11-16T05:37:07.609Z,11.27
2022-11-16T05:38:07.604Z,11.24
2022-11-16T05:39:07.599Z,11.26
2022-11-16T05:40:07.585Z,11.24
2022-11-16T05:41:07.566Z,11.24
2022-11-16T05:42:07.578Z,11.23
2022-11-16T05:43:07.568Z,11.27
2022-11-16T05:44:07.533Z,11.30
2022-11-16T05:45:07.519Z,11.27
2022-11-16T05:46:07.527Z,11.35
2022-11-16T05:47:07.500Z,11.31
2022-11-16T05:48:07.528Z,11.33
2022-11-16T05:49:07.481Z,11.31
2022-11-16T05:50:07.480Z,11.31
2022-11-16T05:51:07.455Z,11.24
2022-11-16T05:52:07.467Z,11.28
2022-11-16T05:53:07.454Z,11.27
2022-11-16T05:54:08.038Z,11.30
2022-11-16T05:55:07.441Z,11.28
2022-11-16T05:56:10.098Z,11.28
2022-11-16T05:57:07.403Z,11.38
2022-11-16T05:58:07.385Z,11.39
2022-11-16T05:59:10.073Z,11.30
2022-11-16T06:00:08.381Z,11.36
2022-11-16T06:01:14.028Z,11.27
2022-11-16T06:02:07.336Z,11.28
2022-11-16T06:03:07.388Z,11.39
2022-11-16T06:04:07.341Z,11.36
2022-11-16T06:05:07.337Z,11.28
2022-11-16T06:06:07.290Z,11.33
2022-11-16T06:07:07.333Z,11.30
2022-11-16T06:08:07.310Z,11.38
2022-11-16T06:09:07.265Z,11.28
2022-11-16T06:10:07.276Z,11.26
2022-11-16T06:11:07.277Z,11.31
2022-11-16T06:12:10.024Z,11.28
2022-11-16T06:13:08.030Z,11.23
2022-11-16T06:14:07.215Z,11.27
2022-11-16T06:15:07.220Z,11.24
2022-11-16T06:16:07.458Z,11.27
2022-11-16T06:17:10.032Z,11.28
2022-11-16T06:18:07.170Z,11.28
2022-11-16T06:19:07.175Z,11.26
2022-11-16T06:20:07.170Z,11.26
2022-11-16T06:21:08.033Z,11.23
2022-11-16T06:22:07.145Z,11.30
2022-11-16T06:23:07.120Z,11.27
2022-11-16T06:24:07.098Z,11.31
2022-11-16T06:25:07.086Z,11.28
2022-11-16T06:26:07.075Z,11.26
2022-11-16T06:27:08.033Z,11.23
2022-11-16T06:28:08.302Z,11.27
2022-11-16T06:29:08.087Z,11.26
2022-11-16T06:30:09.536Z,11.35
2022-11-16T06:31:09.532Z,11.26
2022-11-16T06:32:07.154Z,11.26
2022-11-16T06:33:07.007Z,11.27
2022-11-16T06:34:07.001Z,11.26
2022-11-16T06:35:06.975Z,11.26
2022-11-16T06:36:07.980Z,11.30
2022-11-16T06:37:07.066Z,11.28
2022-11-16T06:38:09.544Z,11.24
2022-11-16T06:39:06.956Z,11.30
2022-11-16T06:40:06.928Z,11.28
2022-11-16T06:41:06.905Z,11.23
2022-11-16T06:42:07.534Z,11.30
2022-11-16T06:43:06.910Z,11.33
2022-11-16T06:44:07.548Z,11.24
2022-11-16T06:45:06.894Z,11.28
2022-11-16T06:46:06.860Z,11.36
2022-11-16T06:47:06.870Z,11.28
2022-11-16T06:48:09.760Z,11.30
2022-11-16T06:49:06.823Z,11.28
2022-11-16T06:50:08.566Z,11.33
2022-11-16T06:51:06.796Z,11.36
2022-11-16T06:52:13.542Z,11.33
2022-11-16T06:53:06.800Z,11.30
2022-11-16T06:54:06.767Z,11.36
2022-11-16T06:55:06.755Z,11.33
2022-11-16T06:56:06.750Z,11.35
2022-11-16T06:57:06.764Z,11.36
2022-11-16T06:58:07.541Z,11.33
2022-11-16T06:59:09.541Z,11.36
2022-11-16T07:00:06.720Z,11.35
2022-11-16T07:01:06.708Z,11.33
2022-11-16T07:02:07.601Z,11.39
2022-11-16T07:03:06.678Z,11.28
2022-11-16T07:04:06.687Z,11.36
2022-11-16T07:05:06.673Z,11.36
2022-11-16T07:06:07.542Z,11.27
2022-11-16T07:07:07.566Z,11.36
2022-11-16T07:08:06.613Z,11.31
2022-11-16T07:09:06.612Z,11.27
2022-11-16T07:10:06.590Z,11.39
2022-11-16T07:11:06.612Z,11.35
2022-11-16T07:12:06.603Z,11.39
2022-11-16T07:13:06.558Z,11.30
2022-11-16T07:14:09.533Z,11.28
2022-11-16T07:15:06.588Z,11.26
2022-11-16T07:16:06.534Z,11.27
2022-11-16T07:17:09.482Z,11.24
2022-11-16T07:18:06.530Z,11.26
2022-11-16T07:19:07.040Z,11.33
2022-11-16T07:20:06.505Z,11.26
2022-11-16T07:21:06.479Z,11.30
2022-11-16T07:22:06.494Z,11.28
2022-11-16T07:23:11.360Z,11.24
2022-11-16T07:24:10.037Z,11.23
2022-11-16T07:25:06.434Z,11.36
2022-11-16T07:26:06.424Z,11.27
2022-11-16T07:27:06.436Z,11.24
2022-11-16T07:28:06.570Z,11.30
2022-11-16T07:29:07.045Z,11.31
2022-11-16T07:30:06.562Z,11.30
2022-11-16T07:31:06.372Z,11.35
2022-11-16T07:32:07.041Z,11.36
2022-11-16T07:33:07.372Z,11.33
2022-11-16T07:34:06.357Z,11.41
2022-11-16T07:35:09.319Z,11.41
2022-11-16T07:36:06.332Z,11.36
2022-11-16T07:37:07.047Z,11.28
2022-11-16T07:38:16.845Z,11.31
2022-11-16T07:39:14.045Z,11.36
2022-11-16T07:40:07.027Z,11.38
2022-11-16T07:41:21.037Z,11.36
2022-11-16T07:42:06.575Z,11.35
2022-11-16T07:43:07.034Z,11.38
2022-11-16T07:44:10.868Z,11.36
2022-11-16T07:45:10.042Z,11.36
2022-11-16T07:46:44.509Z,11.36
2022-11-16T07:47:07.186Z,11.35
2022-11-16T07:48:06.183Z,11.35
2022-11-16T07:49:11.156Z,11.41
2022-11-16T07:50:09.039Z,11.35
2022-11-16T07:51:06.275Z,11.35
2022-11-16T07:52:06.193Z,11.44
2022-11-16T07:53:06.132Z,11.44
2022-11-16T07:54:06.116Z,11.41
2022-11-16T07:55:09.038Z,11.41
2022-11-16T07:56:06.095Z,11.46
2022-11-16T07:57:06.090Z,11.38
2022-11-16T07:58:06.101Z,11.48
2022-11-16T07:59:06.065Z,11.49
2022-11-16T08:00:06.052Z,11.46
2022-11-16T08:01:06.100Z,11.49
2022-11-16T08:02:06.064Z,11.48
2022-11-16T08:03:06.027Z,11.39
2022-11-16T08:04:06.024Z,11.46
2022-11-16T08:05:05.997Z,11.45
2022-11-16T08:06:06.549Z,11.45
2022-11-16T08:07:06.736Z,11.46
2022-11-16T08:08:06.548Z,11.45
2022-11-16T08:09:05.948Z,11.49
2022-11-16T08:10:06.045Z,11.51
2022-11-16T08:11:05.928Z,11.46
2022-11-16T08:12:06.577Z,11.46
2022-11-16T08:13:12.537Z,11.48
2022-11-16T08:14:05.910Z,11.51
2022-11-16T08:15:05.905Z,11.49
2022-11-16T08:16:05.880Z,11.53
2022-11-16T08:17:05.864Z,11.49
2022-11-16T08:18:05.865Z,11.51
2022-11-16T08:19:06.535Z,11.51
2022-11-16T08:20:06.094Z,11.59
2022-11-16T08:21:05.823Z,11.62
2022-11-16T08:22:05.807Z,11.62
2022-11-16T08:23:06.745Z,11.59
2022-11-16T08:24:07.846Z,11.74
2022-11-16T08:25:06.535Z,11.70
2022-11-16T08:26:06.070Z,11.64
2022-11-16T08:27:05.777Z,11.63
2022-11-16T08:28:06.538Z,11.67
2022-11-16T08:29:05.736Z,11.59
2022-11-16T08:30:05.724Z,11.70
2022-11-16T08:31:05.725Z,11.70
2022-11-16T08:32:05.720Z,11.64
2022-11-16T08:33:08.545Z,11.59
2022-11-16T08:34:05.677Z,11.59
2022-11-16T08:35:08.540Z,11.56
2022-11-16T08:36:10.961Z,11.56
2022-11-16T08:37:06.678Z,11.69
2022-11-16T08:38:05.625Z,11.67
2022-11-16T08:39:05.745Z,11.64
2022-11-16T08:40:05.629Z,11.59
2022-11-16T08:41:05.602Z,11.62
2022-11-16T08:42:05.587Z,11.62
2022-11-16T08:43:07.577Z,11.60
2022-11-16T08:44:05.595Z,11.60
2022-11-16T08:45:06.545Z,11.62
2022-11-16T08:46:05.583Z,11.60
2022-11-16T08:47:05.539Z,11.60
2022-11-16T08:48:05.548Z,11.62
2022-11-16T08:49:06.048Z,11.60
2022-11-16T08:50:05.501Z,11.64
2022-11-16T08:51:21.350Z,11.67
2022-11-16T08:52:06.500Z,11.74
2022-11-16T08:53:08.057Z,11.66
2022-11-16T08:54:05.456Z,11.77
2022-11-16T08:55:05.492Z,11.67
2022-11-16T08:56:05.459Z,11.79
2022-11-16T08:57:20.034Z,11.81
2022-11-16T08:58:08.054Z,11.78
2022-11-16T08:59:06.052Z,11.78
2022-11-16T09:00:06.036Z,11.84
2022-11-16T09:01:05.582Z,11.88
2022-11-16T09:02:05.426Z,11.75
2022-11-16T09:03:08.036Z,11.90
2022-11-16T09:04:05.351Z,11.96
2022-11-16T09:05:05.367Z,11.85
2022-11-16T09:06:05.319Z,11.90
2022-11-16T09:07:06.086Z,11.96
2022-11-16T09:08:05.308Z,12.00
2022-11-16T09:09:06.044Z,11.98
2022-11-16T09:10:05.316Z,11.90
2022-11-16T09:11:05.386Z,11.98
2022-11-16T09:12:05.291Z,11.98
2022-11-16T09:13:06.044Z,11.94
2022-11-16T09:14:06.046Z,12.00
2022-11-16T09:15:26.245Z,11.94
2022-11-16T09:16:05.251Z,12.05
2022-11-16T09:17:08.042Z,11.98
2022-11-16T09:18:05.199Z,11.94
2022-11-16T09:19:05.179Z,11.96
2022-11-16T09:20:07.079Z,12.01
2022-11-16T09:21:06.039Z,12.01
2022-11-16T09:22:05.155Z,11.88
2022-11-16T09:23:05.156Z,11.96
2022-11-16T09:24:05.133Z,11.96
2022-11-16T09:25:08.036Z,11.94
2022-11-16T09:26:05.101Z,12.07
2022-11-16T09:27:06.155Z,12.07
2022-11-16T09:28:05.123Z,12.11
2022-11-16T09:29:08.045Z,12.30
2022-11-16T09:30:05.148Z,12.21
2022-11-16T09:31:05.049Z,12.22
2022-11-16T09:32:05.046Z,12.36
2022-11-16T09:33:05.027Z,12.26
2022-11-16T09:34:05.048Z,12.26
2022-11-16T09:35:05.006Z,12.23
2022-11-16T09:36:05.006Z,12.29
2022-11-16T09:37:04.993Z,12.29
2022-11-16T09:38:04.979Z,12.21
2022-11-16T09:40:05.966Z,12.18
2022-11-16T09:41:05.561Z,12.16
2022-11-16T09:42:05.541Z,12.07
2022-11-16T09:43:04.936Z,12.15
2022-11-16T09:44:07.597Z,12.30
2022-11-16T09:45:05.145Z,12.25
2022-11-16T09:46:04.888Z,12.29
2022-11-16T09:47:04.886Z,12.25
2022-11-16T09:48:05.563Z,12.22
2022-11-16T09:49:06.094Z,12.12
2022-11-16T09:50:06.079Z,12.12
2022-11-16T09:51:04.834Z,12.08
2022-11-16T09:52:11.555Z,12.15
2022-11-16T09:53:04.820Z,12.11
2022-11-16T09:54:04.811Z,12.16
2022-11-16T09:55:05.099Z,12.25
2022-11-16T09:56:05.543Z,12.22
2022-11-16T09:57:10.985Z,12.25
2022-11-16T09:58:05.859Z,12.25
2022-11-16T09:59:05.669Z,12.30
2022-11-16T10:00:04.756Z,12.26
2022-11-16T10:01:04.874Z,12.25
2022-11-16T10:02:04.717Z,12.13
2022-11-16T10:03:04.702Z,12.15
2022-11-16T10:04:04.686Z,12.19
2022-11-16T10:05:04.698Z,12.21
2022-11-16T10:06:04.684Z,12.21
2022-11-16T10:07:04.745Z,12.19
2022-11-16T10:08:05.680Z,12.22
2022-11-16T10:09:05.567Z,12.25
2022-11-16T10:10:04.626Z,12.25
2022-11-16T10:11:04.610Z,12.25
2022-11-16T10:12:04.642Z,12.22
2022-11-16T10:13:07.556Z,12.21
2022-11-16T10:14:04.685Z,12.26
2022-11-16T10:15:04.701Z,12.18
2022-11-16T10:16:04.557Z,12.25
2022-11-16T10:17:04.581Z,12.13
2022-11-16T10:18:04.543Z,12.11
2022-11-16T10:19:04.514Z,12.11
2022-11-16T10:20:04.575Z,12.11
2022-11-16T10:21:05.041Z,12.11
2022-11-16T10:22:04.495Z,12.13
2022-11-16T10:23:04.502Z,12.11
2022-11-16T10:24:05.053Z,12.12
2022-11-16T10:25:25.468Z,12.08
2022-11-16T10:26:06.504Z,12.23
2022-11-16T10:27:07.071Z,12.29
2022-11-16T10:28:04.451Z,12.26
2022-11-16T10:29:04.444Z,12.36
2022-11-16T10:30:04.423Z,12.36
2022-11-16T10:31:04.406Z,12.49
2022-11-16T10:32:04.393Z,12.54
2022-11-16T10:33:09.687Z,12.69
2022-11-16T10:34:05.383Z,12.79
2022-11-16T10:35:04.364Z,12.80
2022-11-16T10:36:05.043Z,12.87
2022-11-16T10:37:04.328Z,12.88
2022-11-16T10:38:04.324Z,12.91
2022-11-16T10:39:07.055Z,12.91
2022-11-16T10:40:04.605Z,12.99
2022-11-16T10:41:04.286Z,12.92
2022-11-16T10:42:07.588Z,13.01
2022-11-16T10:43:04.258Z,13.03
2022-11-16T10:44:04.281Z,12.87
2022-11-16T10:45:04.271Z,12.85
2022-11-16T10:46:04.236Z,12.84
2022-11-16T10:47:04.335Z,12.71
2022-11-16T10:48:19.045Z,12.66
2022-11-16T10:49:04.198Z,12.63
2022-11-16T10:50:05.087Z,12.58
2022-11-16T10:51:05.067Z,12.55
2022-11-16T10:52:04.161Z,12.63
2022-11-16T10:53:04.153Z,12.73
2022-11-16T10:54:11.060Z,12.81
2022-11-16T10:55:07.050Z,12.95
2022-11-16T10:56:04.146Z,12.98
2022-11-16T10:57:04.100Z,12.94
2022-11-16T10:58:04.102Z,12.91
2022-11-16T10:59:04.097Z,12.99
2022-11-16T11:00:09.862Z,13.01
2022-11-16T11:01:05.132Z,12.96
2022-11-16T11:02:04.065Z,12.99
2022-11-16T11:03:06.667Z,12.89
2022-11-16T11:04:06.557Z,12.81
2022-11-16T11:05:04.020Z,12.80
2022-11-16T11:06:04.020Z,12.94
2022-11-16T11:07:04.140Z,12.96
2022-11-16T11:08:03.988Z,13.01
2022-11-16T11:09:03.996Z,13.14
2022-11-16T11:10:04.563Z,13.16
2022-11-16T11:11:04.088Z,13.17
2022-11-16T11:12:03.976Z,13.13
2022-11-16T11:13:06.559Z,13.21
2022-11-16T11:14:06.557Z,13.21
2022-11-16T11:15:03.933Z,13.12
2022-11-16T11:16:03.903Z,13.03
2022-11-16T11:17:03.922Z,13.06
2022-11-16T11:18:03.913Z,12.95
2022-11-16T11:19:04.687Z,12.95
2022-11-16T11:20:03.857Z,12.89
2022-11-16T11:21:03.873Z,12.94
2022-11-16T11:22:03.842Z,12.92
2022-11-16T11:23:04.092Z,12.92
2022-11-16T11:24:37.445Z,12.95
2022-11-16T11:25:04.793Z,13.14
2022-11-16T11:26:03.797Z,13.13
2022-11-16T11:27:06.569Z,13.13
2022-11-16T11:28:04.116Z,13.21
2022-11-16T11:29:03.759Z,13.24
2022-11-16T11:30:03.763Z,13.19
2022-11-16T11:31:03.739Z,13.22
2022-11-16T11:32:03.733Z,13.27
2022-11-16T11:33:03.722Z,13.35
2022-11-16T11:34:05.586Z,13.39
2022-11-16T11:35:03.811Z,13.57
2022-11-16T11:36:03.720Z,13.61
2022-11-16T11:37:03.665Z,13.72
2022-11-16T11:38:07.943Z,13.65
2022-11-16T11:39:03.765Z,13.68
2022-11-16T11:40:04.093Z,13.68
2022-11-16T11:41:04.554Z,13.59
2022-11-16T11:42:03.627Z,13.47
2022-11-16T11:43:06.557Z,13.44
2022-11-16T11:44:03.609Z,13.31
2022-11-16T11:45:03.604Z,13.39
2022-11-16T11:46:03.583Z,13.48
2022-11-16T11:47:55.745Z,13.59
2022-11-16T11:48:04.567Z,13.72
2022-11-16T11:49:03.551Z,13.81
2022-11-16T11:50:03.526Z,13.86
2022-11-16T11:51:03.575Z,13.75
2022-11-16T11:52:03.553Z,13.76
2022-11-16T11:53:03.493Z,13.62
2022-11-16T11:54:03.485Z,13.71
2022-11-16T11:55:03.478Z,13.69
2022-11-16T11:56:04.061Z,13.86
2022-11-16T11:57:03.485Z,13.99
2022-11-16T11:58:03.441Z,13.83
2022-11-16T11:59:03.428Z,13.90
2022-11-16T12:00:03.428Z,13.86
2022-11-16T12:01:03.437Z,13.88
2022-11-16T12:02:04.442Z,13.88
2022-11-16T12:03:03.674Z,13.69
2022-11-16T12:04:03.386Z,13.50
2022-11-16T12:05:03.364Z,13.32
2022-11-16T12:06:04.061Z,13.21
2022-11-16T12:07:03.603Z,13.09
2022-11-16T12:08:04.071Z,13.22
2022-11-16T12:09:04.061Z,13.35
2022-11-16T12:10:03.302Z,13.44
2022-11-16T12:11:03.311Z,13.63
2022-11-16T12:12:03.286Z,13.80
2022-11-16T12:13:03.294Z,13.94
2022-11-16T12:14:03.598Z,13.86
2022-11-16T12:15:03.267Z,13.93
2022-11-16T12:16:03.241Z,14.06
2022-11-16T12:17:03.224Z,14.01
2022-11-16T12:18:03.237Z,13.99
2022-11-16T12:19:03.199Z,14.04
2022-11-16T12:20:03.197Z,14.06
2022-11-16T12:21:03.178Z,14.02
2022-11-16T12:22:03.165Z,13.86
2022-11-16T12:23:04.395Z,13.86
2022-11-16T12:24:03.174Z,13.84
2022-11-16T12:25:04.064Z,13.79
2022-11-16T12:26:03.127Z,13.73
2022-11-16T12:27:03.107Z,13.69
2022-11-16T12:28:03.101Z,13.81
2022-11-16T12:29:03.142Z,13.90
2022-11-16T12:30:03.074Z,14.09
2022-11-16T12:31:03.090Z,14.38
2022-11-16T12:32:03.094Z,14.36
2022-11-16T12:33:03.055Z,14.48
2022-11-16T12:34:03.049Z,14.45
2022-11-16T12:35:03.029Z,14.46
2022-11-16T12:36:03.017Z,14.49
2022-11-16T12:37:03.001Z,14.60
2022-11-16T12:38:02.991Z,14.67
2022-11-16T12:39:03.002Z,14.75
2022-11-16T12:40:02.987Z,14.78
2022-11-16T12:41:02.955Z,14.90
2022-11-16T12:42:02.944Z,14.91
2022-11-16T12:43:02.967Z,14.94
2022-11-16T12:44:02.938Z,14.75
2022-11-16T12:45:02.914Z,14.64
2022-11-16T12:46:02.906Z,14.61
2022-11-16T12:47:02.887Z,14.59
2022-11-16T12:48:03.090Z,14.61
2022-11-16T12:49:02.878Z,14.78
2022-11-16T12:50:02.892Z,14.72
2022-11-16T12:51:02.845Z,14.85
2022-11-16T12:52:03.577Z,14.98
2022-11-16T12:53:03.855Z,15.01